createdAt,value
2019-02-28T00:01:43.205Z,81.80
2019-02-28T00:04:14.048Z,81.20
2019-02-28T00:06:45.160Z,80.70
2019-02-28T00:09:16.029Z,80.40
2019-02-28T00:11:46.350Z,78.90
2019-02-28T00:14:16.696Z,78.20
2019-02-28T00:16:47.021Z,77.90
2019-02-28T00:19:17.365Z,78.60
2019-02-28T00:21:47.731Z,77.70
2019-02-28T00:24:18.060Z,77.70
2019-02-28T00:26:48.432Z,77.60
2019-02-28T00:29:18.748Z,78.00
2019-02-28T00:31:49.906Z,78.00
2019-02-28T00:34:21.119Z,78.20
2019-02-28T00:36:53.364Z,81.80
2019-02-28T00:39:23.506Z,85.60
2019-02-28T00:41:53.926Z,85.20
2019-02-28T00:44:24.242Z,83.10
2019-02-28T00:46:54.606Z,82.90
2019-02-28T00:49:25.117Z,82.90
2019-02-28T00:51:55.432Z,83.30
2019-02-28T00:54:25.770Z,83.50
2019-02-28T00:56:56.137Z,84.80
2019-02-28T00:59:26.443Z,84.10
2019-02-28T01:01:56.790Z,84.00
2019-02-28T01:04:29.956Z,83.90
2019-02-28T01:06:59.084Z,83.50
2019-02-28T01:09:30.171Z,81.80
2019-02-28T01:12:01.359Z,81.20
2019-02-28T01:14:32.367Z,80.80
2019-02-28T01:17:03.717Z,80.40
2019-02-28T01:19:34.152Z,81.20
2019-02-28T01:22:04.492Z,80.80
2019-02-28T01:24:35.498Z,80.90
2019-02-28T01:27:05.897Z,82.60
2019-02-28T01:29:36.422Z,85.20
2019-02-28T01:32:06.859Z,85.20
2019-02-28T01:34:37.185Z,83.70
2019-02-28T01:37:07.563Z,83.60
2019-02-28T01:39:37.875Z,82.70
2019-02-28T01:42:08.236Z,82.40
2019-02-28T01:44:38.550Z,81.60
2019-02-28T01:47:08.889Z,82.00
2019-02-28T01:49:39.217Z,81.90
2019-02-28T01:52:10.086Z,82.30
2019-02-28T01:54:41.088Z,82.50
2019-02-28T01:57:11.442Z,83.10
2019-02-28T01:59:41.751Z,84.80
2019-02-28T02:02:12.315Z,84.80
2019-02-28T02:04:43.172Z,85.70
2019-02-28T02:07:14.898Z,85.10
2019-02-28T02:09:46.118Z,84.30
2019-02-28T02:12:17.414Z,84.20
2019-02-28T02:14:47.838Z,83.80
2019-02-28T02:17:19.285Z,83.30
2019-02-28T02:19:52.149Z,83.00
2019-02-28T02:22:22.066Z,82.80
2019-02-28T02:24:52.775Z,83.10
2019-02-28T02:27:24.132Z,82.90
2019-02-28T02:29:54.851Z,82.80
2019-02-28T02:32:25.301Z,82.80
2019-02-28T02:34:55.724Z,82.60
2019-02-28T02:37:26.396Z,82.60
2019-02-28T02:39:58.070Z,82.30
2019-02-28T02:42:28.473Z,81.40
2019-02-28T02:44:59.052Z,81.50
2019-02-28T02:47:32.404Z,81.40
2019-02-28T02:50:02.363Z,81.00
2019-02-28T02:52:32.815Z,80.60
2019-02-28T02:55:03.205Z,80.30
2019-02-28T02:57:33.583Z,80.20
2019-02-28T03:00:04.104Z,79.40
2019-02-28T03:02:34.718Z,78.80
2019-02-28T03:05:05.284Z,78.30
2019-02-28T03:07:35.630Z,78.00
2019-02-28T03:10:06.305Z,77.70
2019-02-28T03:12:36.684Z,77.50
2019-02-28T03:15:07.469Z,77.40
2019-02-28T03:17:37.805Z,77.40
2019-02-28T03:20:09.115Z,77.30
2019-02-28T03:22:39.625Z,77.10
2019-02-28T03:25:10.983Z,76.70
2019-02-28T03:27:41.409Z,76.30
2019-02-28T03:30:25.999Z,76.40
2019-02-28T03:32:46.174Z,76.60
2019-02-28T03:35:16.641Z,77.20
2019-02-28T03:37:47.097Z,76.90
2019-02-28T03:40:17.542Z,76.70
2019-02-28T03:42:47.883Z,76.40
2019-02-28T03:45:18.813Z,76.60
2019-02-28T03:47:49.149Z,76.40
2019-02-28T03:50:21.920Z,76.30
2019-02-28T03:52:51.727Z,76.10
2019-02-28T03:55:22.185Z,75.70
2019-02-28T03:57:52.571Z,75.70
2019-02-28T04:00:22.942Z,76.70
2019-02-28T04:02:58.686Z,75.80
2019-02-28T04:05:28.127Z,75.70
2019-02-28T04:07:57.272Z,75.70
2019-02-28T04:10:27.607Z,75.40
2019-02-28T04:12:57.942Z,75.70
2019-02-28T04:15:28.370Z,75.30
2019-02-28T04:17:58.757Z,75.70
2019-02-28T04:20:36.061Z,75.70
2019-02-28T04:23:02.159Z,75.90
2019-02-28T04:25:39.478Z,75.70
2019-02-28T04:28:17.068Z,75.60
2019-02-28T04:30:43.787Z,75.60
2019-02-28T04:33:13.754Z,75.40
2019-02-28T04:35:44.098Z,75.10
2019-02-28T04:38:14.409Z,75.10
2019-02-28T04:40:44.762Z,75.00
2019-02-28T04:43:15.077Z,74.80
2019-02-28T04:45:45.449Z,74.60
2019-02-28T04:48:15.765Z,74.20
2019-02-28T04:50:46.114Z,73.90
2019-02-28T04:53:18.871Z,73.40
2019-02-28T04:55:48.408Z,72.90
2019-02-28T04:58:18.730Z,72.40
2019-02-28T05:00:49.221Z,72.00
2019-02-28T05:03:19.867Z,71.60
2019-02-28T05:05:50.810Z,71.10
2019-02-28T05:08:21.182Z,70.80
2019-02-28T05:10:55.931Z,70.40
2019-02-28T05:13:25.742Z,70.10
2019-02-28T05:15:56.499Z,69.50
2019-02-28T05:18:27.638Z,69.10
2019-02-28T05:20:58.561Z,68.80
2019-02-28T05:23:28.971Z,68.50
2019-02-28T05:25:59.522Z,68.20
2019-02-28T05:28:30.859Z,68.00
2019-02-28T05:31:01.411Z,67.70
2019-02-28T05:33:31.934Z,67.50
2019-02-28T05:36:04.297Z,67.50
2019-02-28T05:38:34.465Z,67.70
2019-02-28T05:41:04.767Z,67.80
2019-02-28T05:43:35.085Z,67.80
2019-02-28T05:46:05.430Z,67.90
2019-02-28T05:48:38.744Z,67.90
2019-02-28T05:51:19.705Z,67.80
2019-02-28T05:53:50.503Z,67.90
2019-02-28T05:56:20.936Z,68.00
2019-02-28T05:58:52.554Z,68.00
2019-02-28T06:01:23.559Z,67.80
2019-02-28T06:03:53.870Z,68.00
2019-02-28T06:06:24.227Z,67.90
2019-02-28T06:08:54.620Z,67.70
2019-02-28T06:11:24.949Z,67.60
2019-02-28T06:13:55.301Z,67.10
2019-02-28T06:16:25.674Z,66.70
2019-02-28T06:18:56.001Z,66.80
2019-02-28T06:21:26.401Z,67.30
2019-02-28T06:23:56.721Z,67.80
2019-02-28T06:26:27.095Z,69.00
2019-02-28T06:28:57.425Z,69.10
2019-02-28T06:31:27.810Z,69.80
2019-02-28T06:33:58.128Z,70.50
2019-02-28T06:36:29.206Z,71.10
2019-02-28T06:39:00.210Z,71.80
2019-02-28T06:41:31.570Z,72.20
2019-02-28T06:44:01.891Z,72.10
2019-02-28T06:46:33.316Z,72.60
2019-02-28T06:49:06.985Z,72.70
2019-02-28T06:51:48.389Z,72.80
2019-02-28T06:54:19.235Z,73.80
2019-02-28T06:56:49.607Z,73.10
2019-02-28T06:59:19.942Z,74.10
2019-02-28T07:01:50.292Z,74.40
2019-02-28T07:04:20.615Z,74.50
2019-02-28T07:06:50.983Z,73.50
2019-02-28T07:09:21.305Z,73.30
2019-02-28T07:11:54.942Z,73.90
2019-02-28T07:14:23.634Z,74.10
2019-02-28T07:16:56.218Z,73.70
2019-02-28T07:19:27.080Z,74.20
2019-02-28T07:21:58.487Z,73.90
2019-02-28T07:24:28.809Z,74.30
2019-02-28T07:26:59.163Z,74.30
2019-02-28T07:29:29.736Z,74.30
2019-02-28T07:32:01.378Z,74.10
2019-02-28T07:34:31.777Z,73.50
2019-02-28T07:37:02.126Z,73.60
2019-02-28T07:39:32.494Z,74.00
2019-02-28T07:42:03.058Z,74.10
2019-02-28T07:44:33.389Z,74.10
2019-02-28T07:47:03.734Z,73.60
2019-02-28T07:49:36.727Z,74.50
2019-02-28T07:52:07.181Z,73.70
2019-02-28T07:54:37.568Z,73.00
2019-02-28T07:57:08.035Z,72.80
2019-02-28T07:59:42.408Z,72.30
2019-02-28T08:02:10.434Z,71.60
2019-02-28T08:04:40.845Z,71.20
2019-02-28T08:07:11.467Z,70.70
2019-02-28T08:09:43.181Z,70.30
2019-02-28T08:12:13.564Z,69.70
2019-02-28T08:14:47.017Z,69.20
2019-02-28T08:17:15.934Z,68.70
2019-02-28T08:19:46.474Z,67.00
2019-02-28T08:22:23.269Z,66.30
2019-02-28T08:24:49.032Z,66.00
2019-02-28T08:27:19.749Z,65.40
2019-02-28T08:29:50.375Z,64.90
2019-02-28T08:32:20.822Z,64.50
2019-02-28T08:34:51.485Z,64.60
2019-02-28T08:37:22.453Z,63.60
2019-02-28T08:39:53.073Z,63.10
2019-02-28T08:42:23.442Z,62.90
2019-02-28T08:44:58.143Z,62.30
2019-02-28T08:47:26.045Z,62.00
2019-02-28T08:49:56.462Z,61.80
2019-02-28T08:52:26.814Z,61.40
2019-02-28T08:54:59.754Z,60.90
2019-02-28T08:57:29.159Z,60.30
2019-02-28T08:59:59.739Z,60.10
2019-02-28T09:02:30.411Z,59.70
2019-02-28T09:05:00.858Z,59.30
2019-02-28T09:07:31.221Z,59.00
2019-02-28T09:10:01.577Z,58.60
2019-02-28T09:12:33.373Z,58.10
2019-02-28T09:15:04.423Z,57.60
2019-02-28T09:17:34.860Z,57.50
2019-02-28T09:20:07.529Z,57.90
2019-02-28T09:22:37.916Z,57.00
2019-02-28T09:25:10.190Z,56.20
2019-02-28T09:27:40.619Z,55.60
2019-02-28T09:30:19.699Z,54.70
2019-02-28T09:32:50.097Z,54.30
2019-02-28T09:35:20.428Z,53.70
2019-02-28T09:37:50.917Z,53.70
2019-02-28T09:40:21.259Z,53.60
2019-02-28T09:42:52.007Z,53.10
2019-02-28T09:45:22.424Z,52.90
2019-02-28T09:47:52.881Z,53.10
2019-02-28T09:50:23.434Z,53.10
2019-02-28T09:52:53.897Z,52.60
2019-02-28T09:55:24.359Z,52.20
2019-02-28T09:57:55.087Z,51.40
2019-02-28T10:00:27.554Z,51.10
2019-02-28T10:02:57.799Z,50.70
2019-02-28T10:05:28.171Z,50.60
2019-02-28T10:08:02.029Z,49.80
2019-02-28T10:10:30.478Z,49.40
2019-02-28T10:13:00.896Z,49.10
2019-02-28T10:15:31.307Z,49.00
2019-02-28T10:18:04.412Z,48.30
2019-02-28T10:20:33.619Z,47.70
2019-02-28T10:23:04.029Z,47.70
2019-02-28T10:25:40.967Z,47.00
2019-02-28T10:28:06.467Z,46.60
2019-02-28T10:30:36.814Z,46.20
2019-02-28T10:33:07.199Z,46.10
2019-02-28T10:35:37.723Z,46.10
2019-02-28T10:38:08.145Z,45.80
2019-02-28T10:40:38.477Z,45.40
2019-02-28T10:43:08.884Z,45.40
2019-02-28T10:45:42.001Z,45.50
2019-02-28T10:48:11.193Z,45.50
2019-02-28T10:50:41.557Z,45.10
2019-02-28T10:53:11.977Z,44.30
2019-02-28T10:55:42.345Z,43.60
2019-02-28T10:58:15.535Z,43.30
2019-02-28T11:00:45.013Z,42.90
2019-02-28T11:03:15.687Z,42.70
2019-02-28T11:05:46.886Z,42.60
2019-02-28T11:08:19.281Z,42.10
2019-02-28T11:10:49.964Z,41.60
2019-02-28T11:13:20.498Z,41.40
2019-02-28T11:15:51.985Z,40.40
2019-02-28T11:18:22.508Z,40.00
2019-02-28T11:20:53.269Z,39.40
2019-02-28T11:23:23.949Z,38.80
2019-02-28T11:25:55.628Z,38.10
2019-02-28T11:28:28.259Z,37.90
2019-02-28T11:30:58.159Z,37.10
2019-02-28T11:33:28.647Z,36.50
2019-02-28T11:35:59.458Z,36.00
2019-02-28T11:38:29.962Z,34.80
2019-02-28T11:41:00.341Z,34.10
2019-02-28T11:43:37.393Z,33.60
2019-02-28T11:46:04.503Z,33.40
2019-02-28T11:48:34.911Z,33.50
2019-02-28T11:51:06.227Z,33.40
2019-02-28T11:53:40.329Z,33.50
2019-02-28T11:56:08.779Z,33.30
2019-02-28T11:58:39.154Z,33.40
2019-02-28T12:01:10.671Z,33.30
2019-02-28T12:03:41.726Z,32.70
2019-02-28T12:06:12.107Z,32.40
2019-02-28T12:08:45.009Z,32.20
2019-02-28T12:11:15.449Z,32.00
2019-02-28T12:13:45.833Z,31.40
2019-02-28T12:16:19.104Z,31.00
2019-02-28T12:18:48.408Z,30.00
2019-02-28T12:21:18.740Z,30.30
2019-02-28T12:23:49.156Z,30.00
2019-02-28T12:26:21.063Z,29.90
2019-02-28T12:28:51.458Z,29.90
2019-02-28T12:31:21.809Z,28.70
2019-02-28T12:33:53.377Z,28.70
2019-02-28T12:36:24.139Z,28.90
2019-02-28T12:38:54.494Z,28.60
2019-02-28T12:41:25.188Z,28.50
2019-02-28T12:43:56.482Z,28.80
2019-02-28T12:46:26.891Z,28.30
2019-02-28T12:48:57.271Z,28.20
2019-02-28T12:51:27.593Z,28.20
2019-02-28T12:53:59.176Z,28.00
2019-02-28T12:56:29.938Z,28.10
2019-02-28T12:59:00.306Z,27.90
2019-02-28T13:01:33.190Z,27.80
2019-02-28T13:04:04.794Z,27.60
2019-02-28T13:06:39.163Z,27.70
2019-02-28T13:09:09.649Z,27.70
2019-02-28T13:11:39.973Z,27.50
2019-02-28T13:14:10.349Z,27.60
2019-02-28T13:16:40.663Z,27.20
2019-02-28T13:19:11.042Z,27.30
2019-02-28T13:21:43.607Z,27.20
2019-02-28T13:24:16.743Z,26.80
2019-02-28T13:26:47.072Z,26.30
2019-02-28T13:29:17.394Z,26.20
2019-02-28T13:31:47.720Z,26.60
2019-02-28T13:34:19.019Z,26.00
2019-02-28T13:36:49.389Z,26.20
2019-02-28T13:39:27.492Z,26.20
2019-02-28T13:41:58.701Z,25.40
2019-02-28T13:44:31.749Z,25.20
2019-02-28T13:47:01.269Z,25.20
2019-02-28T13:49:31.635Z,25.20
2019-02-28T13:52:02.044Z,25.20
2019-02-28T13:54:32.412Z,25.80
2019-02-28T13:57:08.367Z,25.40
2019-02-28T13:59:34.770Z,25.50
2019-02-28T14:02:05.117Z,26.40
2019-02-28T14:04:35.603Z,25.70
2019-02-28T14:07:07.478Z,25.70
2019-02-28T14:09:41.176Z,26.40
2019-02-28T14:12:11.514Z,26.10
2019-02-28T14:14:43.100Z,26.40
2019-02-28T14:17:15.115Z,26.50
2019-02-28T14:19:45.482Z,26.30
2019-02-28T14:22:15.897Z,27.00
2019-02-28T14:24:46.277Z,27.10
2019-02-28T14:27:16.610Z,27.10
2019-02-28T14:29:48.445Z,27.40
2019-02-28T14:32:19.055Z,27.40
2019-02-28T14:34:49.459Z,27.20
2019-02-28T14:37:20.516Z,27.30
2019-02-28T14:39:51.239Z,27.40
2019-02-28T14:42:21.757Z,27.50
2019-02-28T14:44:52.151Z,27.70
2019-02-28T14:47:24.836Z,28.60
2019-02-28T14:49:54.719Z,28.70
2019-02-28T14:52:25.049Z,28.80
2019-02-28T14:54:57.161Z,28.90
2019-02-28T14:57:27.671Z,29.20
2019-02-28T14:59:59.983Z,29.40
2019-02-28T15:02:29.967Z,29.30
2019-02-28T15:05:01.400Z,29.30
2019-02-28T15:07:31.953Z,29.70
2019-02-28T15:10:02.735Z,30.70
2019-02-28T15:12:33.227Z,32.10
2019-02-28T15:15:05.490Z,32.90
2019-02-28T15:17:38.710Z,33.00
2019-02-28T15:20:08.208Z,32.30
2019-02-28T15:22:38.828Z,32.10
2019-02-28T15:25:10.369Z,31.40
2019-02-28T15:27:40.778Z,30.60
2019-02-28T15:30:14.221Z,30.40
2019-02-28T15:32:44.618Z,30.20
2019-02-28T15:35:16.372Z,30.40
2019-02-28T15:37:46.687Z,30.20
2019-02-28T15:40:21.522Z,30.10
2019-02-28T15:42:51.138Z,30.20
2019-02-28T15:45:21.656Z,30.30
2019-02-28T15:47:59.168Z,30.00
2019-02-28T15:50:28.439Z,30.00
2019-02-28T15:52:59.301Z,30.00
2019-02-28T15:55:30.078Z,30.00
2019-02-28T15:58:02.668Z,30.20
2019-02-28T16:00:33.429Z,30.00
2019-02-28T16:03:03.762Z,29.90
2019-02-28T16:05:35.144Z,29.80
2019-02-28T16:08:10.309Z,30.00
2019-02-28T16:10:37.799Z,29.80
2019-02-28T16:13:08.441Z,29.90
2019-02-28T16:15:43.289Z,30.30
2019-02-28T16:18:13.292Z,30.70
2019-02-28T16:20:43.798Z,31.00
2019-02-28T16:23:14.225Z,31.40
2019-02-28T16:25:46.805Z,32.00
2019-02-28T16:28:16.629Z,32.30
2019-02-28T16:30:46.984Z,33.90
2019-02-28T16:33:17.319Z,35.10
2019-02-28T16:35:50.342Z,36.20
2019-02-28T16:38:19.753Z,37.20
2019-02-28T16:40:50.108Z,37.90
2019-02-28T16:43:20.836Z,39.10
2019-02-28T16:45:52.686Z,41.20
2019-02-28T16:48:22.997Z,41.30
2019-02-28T16:50:56.773Z,42.20
2019-02-28T16:53:26.637Z,42.10
2019-02-28T16:55:57.829Z,43.70
2019-02-28T16:58:28.733Z,45.90
2019-02-28T17:00:59.435Z,47.60
2019-02-28T17:03:29.821Z,47.00
2019-02-28T17:06:01.715Z,48.40
2019-02-28T17:08:36.491Z,48.90
2019-02-28T17:11:06.857Z,49.60
2019-02-28T17:13:56.819Z,50.60
2019-02-28T17:16:41.229Z,51.40
2019-02-28T17:19:11.643Z,52.40
2019-02-28T17:21:42.098Z,52.90
2019-02-28T17:24:13.255Z,53.60
2019-02-28T17:27:06.332Z,53.80
2019-02-28T17:30:00.436Z,53.90
2019-02-28T17:32:32.315Z,54.40
2019-02-28T17:35:02.911Z,54.50
2019-02-28T17:37:34.376Z,55.30
2019-02-28T17:40:06.050Z,55.90
2019-02-28T17:42:38.570Z,55.80
2019-02-28T17:45:16.435Z,56.00
2019-02-28T17:48:17.971Z,55.60
2019-02-28T17:50:56.458Z,55.50
2019-02-28T17:54:20.883Z,54.70
2019-02-28T17:57:32.290Z,54.20
2019-02-28T18:00:52.893Z,53.70
2019-02-28T18:04:01.483Z,54.10
2019-02-28T18:07:08.865Z,53.20
2019-02-28T18:10:05.157Z,53.50
2019-02-28T18:13:39.174Z,53.90
2019-02-28T18:17:11.847Z,53.80
2019-02-28T18:20:10.467Z,54.20
2019-02-28T18:23:27.779Z,54.00
2019-02-28T18:26:38.740Z,54.10
2019-02-28T18:29:32.820Z,54.10
2019-02-28T18:32:03.145Z,54.30
2019-02-28T18:34:35.421Z,54.30
2019-02-28T18:37:06.829Z,54.00
2019-02-28T18:39:37.172Z,53.70
2019-02-28T18:42:07.566Z,53.20
2019-02-28T18:44:41.045Z,53.10
2019-02-28T18:47:11.343Z,53.10
2019-02-28T18:49:41.672Z,52.80
2019-02-28T18:52:11.999Z,53.00
2019-02-28T18:54:43.135Z,52.50
2019-02-28T18:57:13.819Z,52.60
2019-02-28T18:59:44.178Z,52.60
2019-02-28T19:02:15.561Z,52.70
2019-02-28T19:04:47.050Z,52.70
2019-02-28T19:07:17.586Z,52.70
2019-02-28T19:09:48.023Z,52.60
2019-02-28T19:12:18.357Z,52.50
2019-02-28T19:14:48.760Z,52.20
2019-02-28T19:17:19.082Z,52.00
2019-02-28T19:19:49.496Z,52.20
2019-02-28T19:22:19.929Z,52.00
2019-02-28T19:24:50.686Z,52.50
2019-02-28T19:27:21.041Z,52.50
2019-02-28T19:29:52.050Z,52.90
2019-02-28T19:32:24.403Z,52.70
2019-02-28T19:34:54.935Z,53.20
2019-02-28T19:37:25.298Z,53.10
2019-02-28T19:39:55.738Z,53.20
2019-02-28T19:42:26.101Z,53.40
2019-02-28T19:44:56.743Z,53.60
2019-02-28T19:47:27.062Z,53.60
2019-02-28T19:49:57.406Z,53.40
2019-02-28T19:52:27.739Z,53.50
2019-02-28T19:54:58.155Z,53.60
2019-02-28T19:57:28.497Z,53.80
2019-02-28T19:59:59.663Z,53.80
2019-02-28T20:02:30.308Z,53.90
2019-02-28T20:05:01.608Z,54.60
2019-02-28T20:07:34.503Z,54.70
2019-02-28T20:10:08.357Z,54.70
2019-02-28T20:12:39.280Z,55.70
2019-02-28T20:15:13.495Z,57.40
2019-02-28T20:17:44.125Z,58.30
2019-02-28T20:20:15.903Z,59.60
2019-02-28T20:22:47.486Z,60.70
2019-02-28T20:25:18.230Z,61.70
2019-02-28T20:27:48.838Z,62.10
2019-02-28T20:30:19.752Z,62.80
2019-02-28T20:32:50.271Z,63.10
2019-02-28T20:35:26.704Z,63.30
2019-02-28T20:37:53.628Z,63.00
2019-02-28T20:40:24.074Z,63.10
2019-02-28T20:42:57.262Z,63.30
2019-02-28T20:45:28.841Z,63.90
2019-02-28T20:47:59.402Z,64.30
2019-02-28T20:50:32.690Z,64.20
2019-02-28T20:53:03.130Z,64.50
2019-02-28T20:55:33.678Z,65.50
2019-02-28T20:58:04.095Z,65.40
2019-02-28T21:00:34.564Z,65.60
2019-02-28T21:03:05.085Z,66.80
2019-02-28T21:05:35.631Z,68.00
2019-02-28T21:08:06.141Z,70.80
2019-02-28T21:10:36.715Z,72.10
2019-02-28T21:13:07.156Z,74.40
2019-02-28T21:15:39.082Z,76.30
2019-02-28T21:18:10.005Z,76.60
2019-02-28T21:20:42.292Z,78.50
2019-02-28T21:23:12.655Z,78.90
2019-02-28T21:25:43.038Z,79.60
2019-02-28T21:28:13.556Z,78.40
2019-02-28T21:30:44.194Z,78.30
2019-02-28T21:33:14.538Z,78.20
2019-02-28T21:35:45.241Z,79.30
2019-02-28T21:38:15.718Z,78.90
2019-02-28T21:40:46.714Z,79.00
2019-02-28T21:43:17.165Z,79.20
2019-02-28T21:45:47.826Z,80.20
2019-02-28T21:48:18.366Z,79.40
2019-02-28T21:50:48.918Z,79.70
2019-02-28T21:53:19.340Z,79.60
2019-02-28T21:55:49.797Z,79.20
2019-02-28T21:58:20.199Z,79.30
2019-02-28T22:00:50.738Z,79.50
2019-02-28T22:03:21.322Z,79.40
2019-02-28T22:05:51.711Z,79.00
2019-02-28T22:08:22.164Z,79.20
2019-02-28T22:10:52.623Z,78.90
2019-02-28T22:13:23.114Z,79.40
2019-02-28T22:15:53.559Z,80.50
2019-02-28T22:18:23.988Z,80.40
2019-02-28T22:20:54.446Z,81.20
2019-02-28T22:23:24.854Z,81.30
2019-02-28T22:25:55.293Z,82.80
2019-02-28T22:28:26.708Z,83.40
2019-02-28T22:31:18.840Z,82.80
2019-02-28T22:34:04.251Z,82.80
2019-02-28T22:36:38.342Z,83.40
2019-02-28T22:39:10.738Z,83.60
2019-02-28T22:41:41.215Z,83.80
2019-02-28T22:44:11.654Z,85.10
2019-02-28T22:46:42.093Z,86.60
2019-02-28T22:49:12.517Z,87.60
2019-02-28T22:51:42.946Z,88.00
2019-02-28T22:54:13.347Z,88.70
2019-02-28T22:56:43.799Z,88.90
2019-02-28T22:59:14.120Z,90.00
2019-02-28T23:01:45.160Z,89.20
2019-02-28T23:04:15.733Z,90.10
2019-02-28T23:06:46.142Z,90.10
2019-02-28T23:09:17.027Z,90.70
2019-02-28T23:11:47.472Z,90.50
2019-02-28T23:14:18.113Z,90.40
2019-02-28T23:16:48.566Z,90.40
2019-02-28T23:19:19.078Z,90.60
2019-02-28T23:21:49.683Z,90.70
2019-02-28T23:24:20.131Z,91.00
2019-02-28T23:27:15.574Z,90.90
2019-02-28T23:30:00.677Z,91.50
2019-02-28T23:32:37.490Z,91.50
2019-02-28T23:35:11.721Z,91.90
2019-02-28T23:37:42.165Z,92.20
2019-02-28T23:40:13.190Z,92.10
2019-02-28T23:42:43.674Z,92.10
2019-02-28T23:45:14.137Z,92.10
2019-02-28T23:47:50.130Z,92.60
2019-02-28T23:50:20.542Z,92.40
2019-02-28T23:52:51.058Z,92.30
2019-02-28T23:55:22.379Z,92.60
2019-02-28T23:57:53.011Z,92.70
